Time,TemperatureF,DewpointF,PressureIn,WindDirection,WindDirectionDegrees,WindSpeedMPH,WindSpeedGustMPH,Humidity,HourlyPrecipIn,Conditions,Clouds,dailyrainin,SoftwareType,DateUTC
2013-03-18 00:14:00,35.0,13.0,29.76,West,267,0.0,4.0,41,0.00,,,0.00,weatherlink.com 1.10,2013-03-18 06:14:00,
2013-03-18 00:29:00,34.7,13.0,29.77,WNW,293,2.0,4.0,41,0.00,,,0.00,weatherlink.com 1.10,2013-03-18 06:29:00,
2013-03-18 00:44:00,34.9,12.0,29.77,NE,47,3.0,9.0,39,0.00,,,0.00,weatherlink.com 1.10,2013-03-18 06:44:00,
2013-03-18 00:59:00,34.7,11.0,29.78,NW,309,0.0,7.0,38,0.00,,,0.00,weatherlink.com 1.10,2013-03-18 06:59:00,
2013-03-18 01:14:00,34.5,11.0,29.78,West,270,2.0,10.0,38,0.00,,,0.00,weatherlink.com 1.10,2013-03-18 07:14:00,
2013-03-18 01:29:00,34.2,11.0,29.79,NE,34,0.0,7.0,38,0.00,,,0.00,weatherlink.com 1.10,2013-03-18 07:29:00,
2013-03-18 01:44:00,33.7,11.0,29.79,NNW,346,2.0,6.0,39,0.00,,,0.00,weatherlink.com 1.10,2013-03-18 07:44:00,
2013-03-18 01:59:00,33.3,11.0,29.79,NW,311,1.0,7.0,40,0.00,,,0.00,weatherlink.com 1.10,2013-03-18 07:59:00,
2013-03-18 02:14:00,32.9,11.0,29.80,WSW,245,1.0,3.0,40,0.00,,,0.00,weatherlink.com 1.10,2013-03-18 08:14:00,
2013-03-18 02:29:00,32.7,11.0,29.80,East,86,2.0,4.0,40,0.00,,,0.00,weatherlink.com 1.10,2013-03-18 08:29:00,
2013-03-18 02:44:00,32.7,11.0,29.81,ESE,113,0.0,3.0,41,0.00,,,0.00,weatherlink.com 1.10,2013-03-18 08:44:00,
2013-03-18 02:59:00,32.3,11.0,29.81,ENE,70,1.0,4.0,42,0.00,,,0.00,weatherlink.com 1.10,2013-03-18 08:59:00,
2013-03-18 03:14:00,31.4,12.0,29.81,WNW,284,0.0,2.0,44,0.00,,,0.00,weatherlink.com 1.10,2013-03-18 09:14:00,
2013-03-18 03:29:00,31.6,11.0,29.82,East,101,1.0,4.0,42,0.00,,,0.00,weatherlink.com 1.10,2013-03-18 09:29:00,
2013-03-18 03:44:00,31.5,11.0,29.81,ESE,122,1.0,3.0,43,0.00,,,0.00,weatherlink.com 1.10,2013-03-18 09:44:00,
2013-03-18 03:59:00,31.7,11.0,29.80,ENE,71,1.0,2.0,43,0.00,,,0.00,weatherlink.com 1.10,2013-03-18 09:59:00,
2013-03-18 04:14:00,31.2,11.0,29.80,NNW,335,1.0,2.0,44,0.00,,,0.00,weatherlink.com 1.10,2013-03-18 10:14:00,
2013-03-18 04:29:00,30.2,12.0,29.80,SW,229,2.0,3.0,46,0.00,,,0.00,weatherlink.com 1.10,2013-03-18 10:29:00,
2013-03-18 04:44:00,30.6,13.0,29.80,SSW,205,1.0,5.0,48,0.00,,,0.00,weatherlink.com 1.10,2013-03-18 10:44:00,
2013-03-18 04:59:00,31.3,13.0,29.80,WSW,245,0.0,7.0,47,0.00,,,0.00,weatherlink.com 1.10,2013-03-18 10:59:00,
2013-03-18 05:14:00,31.5,13.0,29.80,West,281,1.0,4.0,46,0.00,,,0.00,weatherlink.com 1.10,2013-03-18 11:14:00,
2013-03-18 05:29:00,30.2,12.0,29.80,SW,222,0.0,2.0,46,0.00,,,0.00,weatherlink.com 1.10,2013-03-18 11:29:00,
2013-03-18 05:44:00,31.3,10.0,29.81,West,281,0.0,3.0,41,0.00,,,0.00,weatherlink.com 1.10,2013-03-18 11:44:00,
2013-03-18 05:59:00,31.0,10.0,29.81,ENE,68,0.0,2.0,41,0.00,,,0.00,weatherlink.com 1.10,2013-03-18 11:59:00,
2013-03-18 06:14:00,29.0,12.0,29.81,SSW,207,0.0,2.0,49,0.00,,,0.00,weatherlink.com 1.10,2013-03-18 12:14:00,
2013-03-18 06:29:00,28.0,13.0,29.82,WSW,248,0.0,3.0,53,0.00,,,0.00,weatherlink.com 1.10,2013-03-18 12:29:00,
2013-03-18 06:44:00,27.0,13.0,29.83,SSW,210,0.0,1.0,57,0.00,,,0.00,weatherlink.com 1.10,2013-03-18 12:44:00,
2013-03-18 07:00:00,25.9,14.0,29.84,WSW,249,0.0,1.0,60,0.00,,,0.00,weatherlink.com 1.10,2013-03-18 13:00:00,
2013-03-18 07:15:00,24.9,14.0,29.84,WSW,249,0.0,1.0,63,0.00,,,0.00,weatherlink.com 1.10,2013-03-18 13:15:00,
2013-03-18 07:30:00,25.1,14.0,29.85,SE,126,0.0,1.0,63,0.00,,,0.00,weatherlink.com 1.10,2013-03-18 13:30:00,
2013-03-18 07:45:00,26.6,15.0,29.86,SSW,210,1.0,2.0,62,0.00,,,0.00,weatherlink.com 1.10,2013-03-18 13:45:00,
2013-03-18 08:00:00,29.3,16.0,29.86,SSW,210,0.0,2.0,57,0.00,,,0.00,weatherlink.com 1.10,2013-03-18 14:00:00,
2013-03-18 08:15:00,31.2,16.0,29.86,ESE,105,0.0,-999.0,54,-99.99,,,0.00,weatherlink.com 1.10,2013-03-18 14:15:00,
2013-03-18 08:30:00,33.7,17.0,29.86,SSW,212,3.0,4.0,50,0.00,,,0.00,weatherlink.com 1.10,2013-03-18 14:30:00,
2013-03-18 08:45:00,35.0,16.0,29.87,SW,218,2.0,3.0,47,0.00,,,0.00,weatherlink.com 1.10,2013-03-18 14:45:00,
2013-03-18 09:00:00,36.3,18.0,29.86,East,95,0.0,2.0,47,0.00,,,0.00,weatherlink.com 1.10,2013-03-18 15:00:00,
2013-03-18 09:15:00,37.0,16.0,29.86,ESE,115,2.0,5.0,42,0.00,,,0.00,weatherlink.com 1.10,2013-03-18 15:15:00,
2013-03-18 09:30:00,38.6,16.0,29.86,South,179,0.0,3.0,40,0.00,,,0.00,weatherlink.com 1.10,2013-03-18 15:30:00,
2013-03-18 09:45:00,40.1,15.0,29.86,SE,141,0.0,3.0,36,0.00,,,0.00,weatherlink.com 1.10,2013-03-18 15:45:00,
2013-03-18 10:00:00,40.9,13.0,29.86,ESE,112,1.0,3.0,32,0.00,,,0.00,weatherlink.com 1.10,2013-03-18 16:00:00,
2013-03-18 10:15:00,42.1,13.0,29.86,East,86,2.0,3.0,31,0.00,,,0.00,weatherlink.com 1.10,2013-03-18 16:15:00,
2013-03-18 10:30:00,41.7,11.0,29.86,SSW,213,3.0,11.0,29,0.00,,,0.00,weatherlink.com 1.10,2013-03-18 16:30:00,
2013-03-18 10:45:00,42.8,11.0,29.86,South,170,1.0,6.0,27,0.00,,,0.00,weatherlink.com 1.10,2013-03-18 16:45:00,
2013-03-18 11:00:00,43.8,11.0,29.86,West,266,0.0,9.0,26,0.00,,,0.00,weatherlink.com 1.10,2013-03-18 17:00:00,
2013-03-18 11:15:00,44.0,12.0,29.86,North,8,4.0,8.0,27,0.00,,,0.00,weatherlink.com 1.10,2013-03-18 17:15:00,
2013-03-18 11:30:00,44.4,10.0,29.87,NW,325,5.0,11.0,24,0.00,,,0.00,weatherlink.com 1.10,2013-03-18 17:30:00,
2013-03-18 11:45:00,45.1,10.0,29.85,West,271,5.0,14.0,24,0.00,,,0.00,weatherlink.com 1.10,2013-03-18 17:45:00,
2013-03-18 12:00:00,45.4,10.0,29.85,West,277,3.0,16.0,24,0.00,,,0.00,weatherlink.com 1.10,2013-03-18 18:00:00,
2013-03-18 12:30:00,45.6,12.0,29.84,West,279,10.0,18.0,25,0.00,,,0.00,weatherlink.com 1.10,2013-03-18 18:30:00,
2013-03-18 12:45:00,45.7,13.0,29.84,North,354,5.0,15.0,27,0.00,,,0.00,weatherlink.com 1.10,2013-03-18 18:45:00,
2013-03-18 13:00:00,46.3,13.0,29.84,SW,233,6.0,15.0,26,0.00,,,0.00,weatherlink.com 1.10,2013-03-18 19:00:00,
2013-03-18 13:15:00,47.3,13.0,29.84,NW,318,3.0,14.0,25,0.00,,,0.00,weatherlink.com 1.10,2013-03-18 19:15:00,
2013-03-18 13:30:00,48.3,12.0,29.84,West,271,6.0,17.0,23,0.00,,,0.00,weatherlink.com 1.10,2013-03-18 19:30:00,
2013-03-18 13:45:00,48.3,12.0,29.84,West,273,4.0,17.0,23,0.00,,,0.00,weatherlink.com 1.10,2013-03-18 19:45:00,
2013-03-18 14:00:00,47.7,10.0,29.83,North,352,4.0,11.0,22,0.00,,,0.00,weatherlink.com 1.10,2013-03-18 20:00:00,
2013-03-18 14:15:00,47.6,12.0,29.83,WSW,240,9.0,21.0,24,0.00,,,0.00,weatherlink.com 1.10,2013-03-18 20:15:00,
2013-03-18 14:30:00,47.8,11.0,29.82,SW,215,10.0,16.0,23,0.00,,,0.00,weatherlink.com 1.10,2013-03-18 20:30:00,
2013-03-18 14:45:00,47.9,13.0,29.80,WNW,290,6.0,16.0,24,0.00,,,0.00,weatherlink.com 1.10,2013-03-18 20:45:00,
2013-03-18 15:01:00,48.5,12.0,29.80,SW,218,13.0,18.0,23,0.00,,,0.00,weatherlink.com 1.10,2013-03-18 21:01:00,
2013-03-18 15:16:00,48.4,12.0,29.81,WSW,239,15.0,18.0,23,0.00,,,0.00,weatherlink.com 1.10,2013-03-18 21:16:00,
2013-03-18 15:31:00,48.3,12.0,29.81,NW,312,5.0,17.0,23,0.00,,,0.00,weatherlink.com 1.10,2013-03-18 21:31:00,
2013-03-18 15:46:00,48.2,12.0,29.81,West,270,3.0,15.0,23,0.00,,,0.00,weatherlink.com 1.10,2013-03-18 21:46:00,
2013-03-18 16:01:00,48.7,11.0,29.81,WSW,245,4.0,11.0,22,0.00,,,0.00,weatherlink.com 1.10,2013-03-18 22:01:00,
2013-03-18 16:16:00,47.7,11.0,29.81,South,191,4.0,10.0,23,0.00,,,0.00,weatherlink.com 1.10,2013-03-18 22:16:00,
2013-03-18 16:31:00,49.0,12.0,29.82,WNW,285,6.0,11.0,23,0.00,,,0.00,weatherlink.com 1.10,2013-03-18 22:31:00,
2013-03-18 16:46:00,49.0,13.0,29.82,NE,47,2.0,11.0,24,0.00,,,0.00,weatherlink.com 1.10,2013-03-18 22:46:00,
2013-03-18 17:01:00,48.5,11.0,29.81,NE,41,3.0,8.0,22,0.00,,,0.00,weatherlink.com 1.10,2013-03-18 23:01:00,
2013-03-18 18:31:00,46.8,10.0,29.83,WNW,287,0.0,7.0,22,0.00,,,0.00,weatherlink.com 1.10,2013-03-19 00:31:00,
2013-03-18 18:46:00,45.9,9.0,29.84,West,266,3.0,14.0,22,0.00,,,0.00,weatherlink.com 1.10,2013-03-19 00:46:00,
2013-03-18 19:16:00,44.9,9.0,29.85,West,274,1.0,2.0,23,0.00,,,0.00,weatherlink.com 1.10,2013-03-19 01:16:00,
2013-03-18 19:31:00,43.9,9.0,29.85,SW,234,0.0,2.0,24,0.00,,,0.00,weatherlink.com 1.10,2013-03-19 01:31:00,
2013-03-18 20:31:00,42.7,11.0,29.85,WSW,238,1.0,1.0,27,0.00,,,0.00,weatherlink.com 1.10,2013-03-19 02:31:00,
2013-03-18 20:46:00,40.6,11.0,29.85,West,278,0.0,2.0,30,0.00,,,0.00,weatherlink.com 1.10,2013-03-19 02:46:00,
2013-03-18 21:01:00,39.0,11.0,29.86,West,278,0.0,0.0,32,0.00,,,0.00,weatherlink.com 1.10,2013-03-19 03:01:00,
2013-03-18 21:16:00,37.4,12.0,29.87,West,278,0.0,1.0,35,0.00,,,0.00,weatherlink.com 1.10,2013-03-19 03:16:00,
2013-03-18 21:31:00,38.1,13.0,29.88,NW,324,0.0,2.0,35,0.00,,,0.00,weatherlink.com 1.10,2013-03-19 03:31:00,
2013-03-18 21:46:00,38.8,12.0,29.89,NNE,13,0.0,1.0,33,0.00,,,0.00,weatherlink.com 1.10,2013-03-19 03:46:00,
2013-03-18 22:01:00,38.3,13.0,29.89,NW,318,0.0,1.0,35,0.00,,,0.00,weatherlink.com 1.10,2013-03-19 04:01:00,
2013-03-18 22:16:00,39.0,13.0,29.90,ENE,63,1.0,1.0,35,0.00,,,0.00,weatherlink.com 1.10,2013-03-19 04:16:00,
2013-03-18 22:31:00,37.9,14.0,29.91,NW,322,0.0,1.0,38,0.00,,,0.00,weatherlink.com 1.10,2013-03-19 04:31:00,
2013-03-18 22:46:00,36.0,14.0,29.91,West,271,0.0,1.0,41,0.00,,,0.00,weatherlink.com 1.10,2013-03-19 04:46:00,
2013-03-18 23:01:00,36.5,14.0,29.91,West,271,0.0,1.0,40,0.00,,,0.00,weatherlink.com 1.10,2013-03-19 05:01:00,
2013-03-18 23:16:00,40.0,18.0,29.92,WSW,243,2.0,2.0,41,0.00,,,0.00,weatherlink.com 1.10,2013-03-19 05:16:00,
2013-03-18 23:31:00,38.7,17.0,29.92,North,354,1.0,1.0,42,0.00,,,0.00,weatherlink.com 1.10,2013-03-19 05:31:00,
2013-03-18 23:46:00,37.2,18.0,29.91,NW,321,0.0,1.0,45,0.00,,,0.00,weatherlink.com 1.10,2013-03-19 05:46:00,